Time;durP1;ratioP1;P1;durP2;ratioP2;P2;SDS_P1;SDS_P2;PMS_P1;PMS_P2;Temp;Humidity;BMP_temperature;BMP_pressure;BME280_temperature;BME280_humidity;BME280_pressure;Samples;Min_cycle;Max_cycle;Signal;HPM_P1;HPM_P2
2022/07/21 03:51:57;;;;;;;16.83;15.02;;;;;;;22.91;69.91;97039.81;5412027;23;20312;-79
2022/07/21 03:54:25;;;;;;;17.42;15.63;;;;;;;22.91;71.47;97045.16;4883823;29;20125;-79
2022/07/21 03:56:52;;;;;;;15.52;13.93;;;;;;;22.94;72.25;97049.97;4885599;29;20084;-78
2022/07/21 03:59:20;;;;;;;17.27;14.63;;;;;;;22.93;70.64;97052.88;4888275;29;20088;-79
2022/07/21 04:01:47;;;;;;;15.32;13.73;;;;;;;22.92;70.64;97046.75;4888440;29;20131;-79
2022/07/21 04:04:15;;;;;;;15.13;13.52;;;;;;;22.93;71.96;97050.22;4885982;29;20569;-79
2022/07/21 04:06:42;;;;;;;13.85;12.43;;;;;;;22.94;73.25;97052.63;4881393;29;20087;-79
2022/07/21 04:09:11;;;;;;;14.88;13.38;;;;;;;22.95;71.32;97062.22;4881086;29;20055;-79
2022/07/21 04:11:39;;;;;;;16.27;14.57;;;;;;;22.91;70.28;97070.94;4880392;29;20053;-78
2022/07/21 04:14:06;;;;;;;14.43;12.93;;;;;;;22.91;72.09;97066.41;4880334;29;20537;-79
2022/07/21 04:16:34;;;;;;;15.77;14.18;;;;;;;22.91;71.39;97071.75;4880207;29;20506;-78
2022/07/21 04:19:01;;;;;;;15.68;14.07;;;;;;;22.91;71.29;97069.09;4880358;29;20053;-79
2022/07/21 04:21:29;;;;;;;16.10;13.98;;;;;;;22.92;72.34;97072.56;4880793;29;20127;-78
2022/07/21 04:23:56;;;;;;;14.63;12.80;;;;;;;22.95;72.82;97083.50;4880083;29;20196;-78
2022/07/21 04:26:27;;;;;;;15.35;13.75;;;;;;;22.96;71.90;97085.13;4880170;29;20116;-79
2022/07/21 04:28:55;;;;;;;15.38;13.88;;;;;;;22.97;72.13;97086.72;4880262;29;20049;-78
2022/07/21 04:31:23;;;;;;;15.57;13.95;;;;;;;22.97;72.30;97083.25;4879553;29;20112;-79
2022/07/21 04:33:50;;;;;;;14.65;13.25;;;;;;;23.00;73.13;97088.94;4880005;29;20094;-78
2022/07/21 04:36:18;;;;;;;16.67;14.75;;;;;;;22.95;69.73;97088.81;4880247;29;20514;-79
2022/07/21 04:38:45;;;;;;;16.05;13.07;;;;;;;22.95;72.33;97094.13;4879989;29;20135;-79
2022/07/21 04:41:13;;;;;;;17.27;13.65;;;;;;;22.95;70.81;97106.63;4879625;29;20108;-79
2022/07/21 04:43:42;;;;;;;13.63;12.18;;;;;;;22.93;70.84;97104.22;4879723;29;20072;-78
2022/07/21 04:46:10;;;;;;;14.30;12.80;;;;;;;22.94;71.04;97105.84;4879989;29;20056;-79
2022/07/21 04:48:42;;;;;;;15.88;11.88;;;;;;;22.92;69.88;97092.00;4880093;29;20053;-79
2022/07/21 04:51:09;;;;;;;14.07;11.88;;;;;;;22.93;70.63;97101.56;4879806;29;20088;-79
2022/07/21 04:53:37;;;;;;;13.75;12.27;;;;;;;22.93;70.50;97112.19;4879675;29;20116;-78
2022/07/21 04:56:05;;;;;;;11.25;10.15;;;;;;;22.96;72.80;97125.03;4879694;29;20080;-79
2022/07/21 04:58:32;;;;;;;13.30;12.02;;;;;;;22.96;70.35;97119.69;4879481;29;20089;-79
2022/07/21 05:01:03;;;;;;;13.50;12.00;;;;;;;22.93;70.26;97117.53;4879179;29;20501;-79
2022/07/21 05:03:30;;;;;;;12.68;11.27;;;;;;;22.97;71.83;97109.88;4879404;29;20049;-79
2022/07/21 05:05:58;;;;;;;12.68;11.35;;;;;;;22.97;70.82;97117.84;4879507;29;20139;-79
2022/07/21 05:08:26;;;;;;;12.35;11.13;;;;;;;22.96;70.81;97125.03;4879036;29;20085;-79
2022/07/21 05:10:54;;;;;;;13.65;11.38;;;;;;;22.91;69.25;97132.13;4878858;29;20048;-78
2022/07/21 05:13:21;;;;;;;12.98;10.75;;;;;;;22.85;69.64;97125.97;4879606;29;20100;-79
2022/07/21 05:15:49;;;;;;;14.80;12.05;;;;;;;22.79;68.70;97122.41;4879522;29;20167;-79
2022/07/21 05:18:18;;;;;;;14.73;13.18;;;;;;;22.75;68.27;97141.78;4879353;29;20061;-79
2022/07/21 05:20:45;;;;;;;44.33;33.35;;;;;;;22.74;70.21;97129.50;4879110;29;20085;-79
2022/07/21 05:23:14;;;;;;;15.68;12.95;;;;;;;22.73;70.25;97122.59;4879892;29;20460;-79
2022/07/21 05:25:41;;;;;;;12.43;10.60;;;;;;;22.74;70.87;97129.50;4879394;29;20422;-78
2022/07/21 05:28:09;;;;;;;16.17;11.68;;;;;;;22.72;70.62;97132.44;4879558;29;20217;-79
2022/07/21 05:30:37;;;;;;;13.57;11.00;;;;;;;22.73;71.27;97134.03;4879049;29;20085;-79
2022/07/21 05:33:04;;;;;;;12.27;11.25;;;;;;;22.71;70.76;97136.13;4879336;29;20076;-79
2022/07/21 05:35:33;;;;;;;14.60;11.75;;;;;;;22.67;69.52;97148.31;4879312;29;20136;-78
2022/07/21 05:38:01;;;;;;;13.93;12.52;;;;;;;22.64;69.16;97146.16;4879900;29;20057;-79
2022/07/21 05:40:29;;;;;;;13.73;11.30;;;;;;;22.63;70.26;97150.69;4880084;29;20053;-79
2022/07/21 05:42:56;;;;;;;15.75;12.15;;;;;;;22.68;72.87;97151.81;4880515;29;20057;-79
2022/07/21 05:45:24;;;;;;;13.30;11.65;;;;;;;22.71;72.78;97152.09;4879227;29;20084;-79
2022/07/21 05:47:51;;;;;;;12.57;11.25;;;;;;;22.69;70.77;97153.41;4879121;29;20596;-79
2022/07/21 05:50:19;;;;;;;12.80;11.48;;;;;;;22.67;70.32;97150.97;4878965;29;20053;-79
2022/07/21 05:52:48;;;;;;;14.85;11.93;;;;;;;22.70;70.62;97153.16;4881080;29;20124;-79
2022/07/21 05:55:15;;;;;;;12.85;11.50;;;;;;;22.71;70.72;97148.63;4901198;29;20053;-79
2022/07/21 05:57:43;;;;;;;14.40;11.13;;;;;;;22.73;72.08;97146.53;4904855;29;20060;-79
2022/07/21 06:00:15;;;;;;;11.85;10.65;;;;;;;22.77;71.79;97145.00;4900686;29;20045;-79
2022/07/21 06:02:42;;;;;;;13.10;11.80;;;;;;;22.77;70.13;97140.47;4902801;29;20084;-79
2022/07/21 06:05:10;;;;;;;12.40;11.13;;;;;;;22.81;71.99;97135.47;4892420;29;20490;-79
2022/07/21 06:07:38;;;;;;;12.57;11.20;;;;;;;22.82;70.19;97137.06;4883150;29;20049;-79
2022/07/21 06:10:08;;;;;;;13.05;11.75;;;;;;;22.85;71.35;97139.25;4882544;29;20466;-79
2022/07/21 06:12:42;;;;;;;15.15;12.10;;;;;;;22.88;71.25;97154.72;4882935;29;20057;-79
2022/07/21 06:15:10;;;;;;;13.82;11.88;;;;;;;22.91;71.31;97158.72;4883154;29;20149;-79
2022/07/21 06:17:42;;;;;;;12.77;11.38;;;;;;;22.95;70.76;97160.66;4882321;29;20100;-79
2022/07/21 06:20:10;;;;;;;12.35;10.68;;;;;;;22.98;72.19;97162.00;4882529;29;20061;-79
2022/07/21 06:22:38;;;;;;;12.82;11.57;;;;;;;23.00;71.48;97168.75;4885121;29;20057;-79
2022/07/21 06:25:08;;;;;;;14.02;11.50;;;;;;;22.99;69.80;97169.75;4883108;29;20132;-79
2022/07/21 06:27:36;;;;;;;11.95;10.43;;;;;;;22.98;69.97;97172.66;4882672;29;20073;-79
2022/07/21 06:30:05;;;;;;;13.48;12.07;;;;;;;22.95;68.68;97173.94;4881783;29;20565;-78
2022/07/21 06:32:33;;;;;;;14.40;12.32;;;;;;;22.93;68.89;97186.69;4882615;29;20099;-79
2022/07/21 06:35:00;;;;;;;13.73;11.00;;;;;;;22.93;70.60;97177.91;4882412;29;20506;-79
2022/07/21 06:37:28;;;;;;;14.45;12.43;;;;;;;22.94;69.03;97180.34;4882493;29;20136;-79
2022/07/21 06:39:55;;;;;;;13.48;12.07;;;;;;;22.94;68.81;97188.31;4882230;29;20061;-79
2022/07/21 06:42:24;;;;;;;13.32;11.98;;;;;;;22.97;69.17;97187.00;4882268;29;20392;-79
2022/07/21 06:44:52;;;;;;;14.07;12.57;;;;;;;23.00;68.62;97176.72;4885504;29;20104;-79
2022/07/21 06:47:20;;;;;;;15.45;11.85;;;;;;;23.06;69.10;97182.09;4885263;29;20061;-79
2022/07/21 06:49:47;;;;;;;17.00;13.75;;;;;;;23.11;67.80;97182.16;4882497;29;20568;-78
2022/07/21 06:52:15;;;;;;;18.75;14.48;;;;;;;23.12;67.58;97183.78;4882020;29;20494;-79
2022/07/21 06:54:42;;;;;;;13.77;11.88;;;;;;;23.15;67.29;97189.38;4882337;29;20068;-78
2022/07/21 06:57:10;;;;;;;12.27;11.07;;;;;;;23.15;66.53;97199.22;4881953;29;20079;-78
2022/07/21 06:59:39;;;;;;;19.58;15.45;;;;;;;23.10;66.09;97192.00;4884224;29;20586;-78
2022/07/21 07:02:07;;;;;;;14.57;12.32;;;;;;;23.09;68.05;97200.22;4883185;29;20527;-79
2022/07/21 07:04:35;;;;;;;12.73;11.43;;;;;;;23.10;68.36;97201.84;4885177;29;20093;-79
2022/07/21 07:07:03;;;;;;;13.10;10.98;;;;;;;23.10;67.08;97207.97;4881683;29;20080;-79
2022/07/21 07:09:31;;;;;;;14.50;12.15;;;;;;;23.10;67.09;97210.63;4882512;29;20109;-79
2022/07/21 07:12:03;;;;;;;17.08;12.32;;;;;;;23.11;67.20;97209.59;4883885;29;20137;-79
2022/07/21 07:14:52;;;;;;;12.07;9.80;;;;;;;23.12;68.18;97215.72;4884980;29;20056;-79
2022/07/21 07:17:20;;;;;;;10.80;9.75;;;;;;;23.10;64.75;97218.59;4883399;29;20147;-79
2022/07/21 07:19:48;;;;;;;9.98;8.88;;;;;;;23.10;65.84;97217.81;4882512;29;20059;-79
2022/07/21 07:22:16;;;;;;;9.55;8.65;;;;;;;23.15;66.16;97226.66;4882034;29;20049;-79
2022/07/21 07:24:44;;;;;;;11.40;10.13;;;;;;;23.21;66.35;97224.88;4882634;29;20510;-79
2022/07/21 07:27:11;;;;;;;10.73;9.63;;;;;;;23.25;67.48;97215.34;4882362;29;20566;-79
2022/07/21 07:29:39;;;;;;;9.73;8.77;;;;;;;23.27;65.73;97213.22;4882718;29;20076;-79
2022/07/21 07:32:08;;;;;;;12.23;8.73;;;;;;;23.29;65.73;97221.78;4882779;29;20079;-79
2022/07/21 07:34:36;;;;;;;10.15;9.10;;;;;;;23.33;63.89;97214.91;4882674;29;20140;-79
2022/07/21 07:37:03;;;;;;;12.43;10.27;;;;;;;23.35;65.18;97215.47;4882393;29;20049;-79
2022/07/21 07:39:31;;;;;;;10.70;9.60;;;;;;;23.38;64.31;97227.47;4882811;29;20091;-79
2022/07/21 07:41:58;;;;;;;9.55;8.57;;;;;;;23.47;66.33;97228.63;4882064;29;20045;-79
2022/07/21 07:44:26;;;;;;;8.15;7.03;;;;;;;23.50;62.20;97216.69;4882014;29;20110;-79
2022/07/21 07:46:54;;;;;;;7.15;6.45;;;;;;;23.50;61.57;97211.34;4881753;29;20049;-79
2022/07/21 07:49:23;;;;;;;7.18;6.53;;;;;;;23.49;61.30;97210.56;4881739;29;20049;-78
2022/07/21 07:51:50;;;;;;;9.95;7.03;;;;;;;23.47;60.83;97212.66;4881416;29;20132;-78
2022/07/21 07:54:18;;;;;;;9.40;7.03;;;;;;;23.43;61.03;97206.22;4882438;29;20077;-78
2022/07/21 07:56:45;;;;;;;8.45;7.10;;;;;;;23.45;62.98;97212.91;4881684;29;20509;-79
2022/07/21 07:59:13;;;;;;;10.00;7.93;;;;;;;23.47;61.74;97210.00;4881142;29;20104;-78
2022/07/21 08:01:41;;;;;;;8.55;7.40;;;;;;;23.48;62.20;97216.91;4881139;29;20053;-79
2022/07/21 08:04:08;;;;;;;8.63;7.82;;;;;;;23.56;61.09;97210.34;4881918;29;20076;-79
2022/07/21 08:06:37;;;;;;;7.72;7.03;;;;;;;23.57;60.54;97210.13;4882150;29;20437;-78
2022/07/21 08:09:05;;;;;;;7.88;7.07;;;;;;;23.60;61.29;97200.81;4881838;29;20501;-79
2022/07/21 08:11:32;;;;;;;8.25;6.97;;;;;;;23.64;61.16;97207.25;4881988;29;20099;-79
2022/07/21 08:14:00;;;;;;;8.32;7.35;;;;;;;23.71;62.79;97210.50;4881431;29;20061;-79
2022/07/21 08:16:28;;;;;;;8.00;7.15;;;;;;;23.81;61.63;97202.66;4881061;29;20517;-79
2022/07/21 08:18:55;;;;;;;7.50;6.72;;;;;;;23.91;61.00;97201.94;4881272;29;20108;-79
2022/07/21 08:21:29;;;;;;;8.88;7.35;;;;;;;23.98;59.94;97207.88;4885456;29;20105;-79
2022/07/21 08:24:17;;;;;;;8.45;6.82;;;;;;;24.07;59.55;97205.53;4889467;29;20071;-79
2022/07/21 08:26:46;;;;;;;7.95;7.10;;;;;;;24.16;58.00;97208.53;4888137;29;20113;-79
2022/07/21 08:29:14;;;;;;;8.20;6.75;;;;;;;24.19;58.04;97216.84;4885736;29;20061;-79
2022/07/21 08:31:41;;;;;;;7.40;6.70;;;;;;;24.24;57.79;97216.88;4879873;29;20508;-79
2022/07/21 08:34:09;;;;;;;7.70;6.57;;;;;;;24.26;57.01;97214.78;4883779;29;20493;-79
2022/07/21 08:36:36;;;;;;;7.55;6.85;;;;;;;24.29;57.92;97210.78;4883092;29;20072;-79
2022/07/21 08:39:05;;;;;;;8.30;6.30;;;;;;;24.34;58.39;97216.19;4879896;29;20114;-79
2022/07/21 08:41:36;;;;;;;10.43;6.25;;;;;;;24.41;59.13;97215.97;4879198;29;20135;-79
2022/07/21 08:44:04;;;;;;;8.20;6.57;;;;;;;24.50;57.97;97214.44;4879662;29;20049;-79
2022/07/21 08:46:34;;;;;;;6.95;6.35;;;;;;;24.54;56.46;97218.22;4879653;29;20092;-78
2022/07/21 08:49:03;;;;;;;9.80;6.78;;;;;;;24.59;56.50;97212.91;4880177;29;20509;-79
2022/07/21 08:51:33;;;;;;;8.88;6.72;;;;;;;24.63;56.39;97219.34;4879364;29;20048;-79
2022/07/21 08:54:01;;;;;;;6.75;5.93;;;;;;;24.67;56.30;97219.63;4880201;29;20429;-79
2022/07/21 08:56:29;;;;;;;7.72;6.40;;;;;;;24.74;55.95;97219.41;4880162;29;20053;-79
2022/07/21 08:58:58;;;;;;;8.80;6.45;;;;;;;24.83;56.16;97223.19;4879974;29;20099;-79
2022/07/21 09:01:26;;;;;;;7.18;6.57;;;;;;;24.90;55.49;97222.97;4879911;29;20486;-79
2022/07/21 09:03:54;;;;;;;7.25;6.55;;;;;;;24.92;55.29;97218.97;4879879;29;20052;-79
2022/07/21 09:06:22;;;;;;;7.95;6.53;;;;;;;24.95;55.25;97221.13;4879911;29;20109;-79
2022/07/21 09:08:51;;;;;;;7.43;6.55;;;;;;;24.97;55.00;97219.03;4880235;29;20174;-79
2022/07/21 09:11:22;;;;;;;8.73;6.03;;;;;;;25.01;56.45;97228.09;4879132;29;20053;-79
2022/07/21 09:14:07;;;;;;;7.20;6.45;;;;;;;25.06;53.92;97232.69;4878946;29;20053;-79
2022/07/21 09:16:37;;;;;;;6.63;6.03;;;;;;;25.11;54.45;97229.22;4879655;29;20069;-79
2022/07/21 09:19:06;;;;;;;9.73;6.85;;;;;;;25.13;53.54;97227.91;4879774;29;20525;-79
2022/07/21 09:21:35;;;;;;;6.93;6.22;;;;;;;25.17;53.73;97217.50;4879239;29;20085;-79
2022/07/21 09:24:17;;;;;;;6.90;5.60;;;;;;;25.24;53.71;97218.09;4879738;29;20057;-79
2022/07/21 09:27:04;;;;;;;6.85;6.20;;;;;;;25.30;52.84;97217.06;4880175;29;20056;-79
2022/07/21 09:29:40;;;;;;;7.22;6.22;;;;;;;25.27;51.88;97217.56;4879033;29;20124;-79
2022/07/21 09:32:23;;;;;;;10.57;5.97;;;;;;;25.33;52.69;97215.72;4879004;29;20057;-79
2022/07/21 09:34:53;;;;;;;7.28;5.93;;;;;;;25.40;51.74;97214.41;4881010;29;20109;-79
2022/07/21 09:37:22;;;;;;;6.38;5.68;;;;;;;25.48;51.62;97213.09;4880386;29;20100;-79
2022/07/21 09:39:51;;;;;;;6.70;5.97;;;;;;;25.54;51.53;97211.25;4880295;29;20494;-79
2022/07/21 09:42:23;;;;;;;6.20;5.70;;;;;;;25.58;53.13;97215.00;4879284;29;20423;-79
2022/07/21 09:44:54;;;;;;;6.93;6.23;;;;;;;25.64;53.85;97216.63;4879247;29;20144;-79
2022/07/21 09:47:23;;;;;;;9.90;6.97;;;;;;;25.72;54.54;97213.44;4880670;29;20091;-80
2022/07/21 09:49:51;;;;;;;8.23;6.05;;;;;;;25.81;52.26;97211.06;4891548;29;20080;-79
2022/07/21 09:52:41;;;;;;;6.82;6.18;;;;;;;25.92;51.71;97209.22;4881783;29;20049;-79
2022/07/21 09:55:10;;;;;;;6.72;5.55;;;;;;;26.02;51.78;97214.56;4879368;29;20144;-79
2022/07/21 09:57:39;;;;;;;6.30;5.70;;;;;;;26.12;50.89;97211.91;4878974;29;20139;-79
2022/07/21 10:00:12;;;;;;;7.32;5.60;;;;;;;26.20;49.84;97215.94;4878435;29;20116;-79
2022/07/21 10:02:47;;;;;;;7.22;5.57;;;;;;;26.25;49.20;97211.38;4878735;29;20528;-79
2022/07/21 10:05:17;;;;;;;6.47;5.28;;;;;;;26.28;50.98;97213.53;4878810;29;20109;-79
2022/07/21 10:11:02;;;;;;;7.18;5.32;;;;;;;26.40;49.49;97213.25;5050456;23;20048;-81
2022/07/21 10:14:11;;;;;;;9.63;6.10;;;;;;;26.45;48.93;97204.41;4903048;29;20033;-79
2022/07/21 12:25:44;;;;;;;3.85;3.35;;;;;;;28.01;38.75;97116.72;4432658;23;20061;-81
2022/07/21 12:31:53;;;;;;;4.55;3.53;;;;;;;28.06;39.69;97118.56;4886010;29;20078;-81
2022/07/21 12:37:24;;;;;;;5.22;4.00;;;;;;;28.06;39.61;97107.81;4903107;24;20037;-80
2022/07/21 12:40:16;;;;;;;4.97;4.18;;;;;;;28.10;39.41;97114.22;4904744;29;20064;-80
2022/07/21 12:43:14;;;;;;;4.78;4.35;;;;;;;28.14;40.05;97118.75;5003199;23;20060;-79
2022/07/21 12:51:31;;;;;;;4.93;4.45;;;;;;;28.25;39.28;97114.09;5065923;23;20043;-80
2022/07/21 12:54:11;;;;;;;4.30;3.70;;;;;;;28.28;38.63;97110.81;4931589;23;20038;-80
2022/07/21 12:56:55;;;;;;;3.95;3.55;;;;;;;28.30;38.15;97107.88;4919049;23;20100;-81
2022/07/21 13:02:32;;;;;;;4.13;3.72;;;;;;;28.32;39.13;97103.81;4917317;23;20106;-80
2022/07/21 13:05:08;;;;;;;4.30;3.70;;;;;;;28.34;39.59;97109.69;4999190;23;20089;-79
2022/07/21 13:07:45;;;;;;;4.18;3.60;;;;;;;28.37;39.70;97113.69;5068175;23;20045;-79
2022/07/21 13:10:22;;;;;;;3.75;3.40;;;;;;;28.39;38.86;97114.22;4919658;23;20033;-81
2022/07/21 13:13:04;;;;;;;4.50;3.78;;;;;;;28.42;38.63;97107.47;5077006;23;20100;-80
2022/07/21 13:15:38;;;;;;;4.10;3.70;;;;;;;28.43;38.71;97106.41;4935371;23;20079;-80
2022/07/21 13:18:26;;;;;;;3.83;3.53;;;;;;;28.46;39.40;97106.59;5126728;23;20044;-81
2022/07/21 13:21:10;;;;;;;5.63;4.18;;;;;;;28.48;38.06;97096.41;4914680;23;20045;-81
2022/07/21 13:23:46;;;;;;;4.32;3.70;;;;;;;28.46;37.46;97095.88;4886317;29;20054;-80
2022/07/21 13:26:26;;;;;;;4.28;3.88;;;;;;;28.44;37.46;97095.34;4885110;29;20037;-80
2022/07/21 13:29:02;;;;;;;3.58;3.28;;;;;;;28.45;38.27;97094.28;4885477;29;20033;-80
2022/07/21 13:31:43;;;;;;;4.93;4.05;;;;;;;28.51;38.66;97092.38;4944533;23;20041;-79
2022/07/21 13:34:32;;;;;;;3.80;3.42;;;;;;;28.55;39.81;97088.81;4885163;29;20095;-80
2022/07/21 13:37:33;;;;;;;5.65;4.13;;;;;;;28.58;38.70;97092.03;4884922;29;20058;-80
2022/07/21 13:40:09;;;;;;;4.20;3.45;;;;;;;28.57;38.80;97091.22;4885010;29;20041;-80
2022/07/21 13:43:05;;;;;;;3.92;3.50;;;;;;;28.56;37.71;97095.00;5029586;23;20049;-80
2022/07/21 13:46:08;;;;;;;5.03;3.65;;;;;;;28.56;38.67;97078.91;4903748;29;20040;-80
2022/07/21 13:48:48;;;;;;;7.32;4.32;;;;;;;28.58;38.87;97086.66;4903443;29;20048;-79
2022/07/21 13:51:25;;;;;;;4.88;3.80;;;;;;;28.60;38.71;97090.69;4903721;29;20096;-79
2022/07/21 13:54:15;;;;;;;4.40;4.00;;;;;;;28.62;38.96;97093.84;4903705;29;20066;-79
2022/07/21 13:56:49;;;;;;;5.25;3.90;;;;;;;28.61;38.29;97086.88;4903780;29;20049;-81
2022/07/21 13:59:28;;;;;;;4.03;3.72;;;;;;;28.60;38.59;97079.94;4904043;29;20062;-82
2022/07/21 14:02:05;;;;;;;5.28;3.80;;;;;;;28.59;37.72;97082.91;4903731;29;20037;-85
2022/07/21 14:45:31;;;;;;;5.28;3.97;;;;;;;28.40;40.27;97072.06;1283638;23;20420;-76
2022/07/21 14:47:59;;;;;;;3.90;3.60;;;;;;;28.38;40.53;97060.81;4881976;29;20498;-76
2022/07/21 14:50:27;;;;;;;4.30;3.90;;;;;;;28.34;39.97;97066.78;4881288;29;20053;-76
2022/07/21 16:36:14;;;;;;;6.55;3.97;;;;;;;27.67;39.06;97022.88;5180361;23;20045;-80
2022/07/21 16:54:18;;;;;;;3.75;3.42;;;;;;;27.62;37.33;97012.22;4904158;29;20033;-80
2022/07/21 17:16:48;;;;;;;4.25;3.90;;;;;;;27.52;40.77;97016.56;3135567;23;20048;-81
2022/07/21 18:57:15;;;;;;;3.83;3.47;;;;;;;26.70;45.42;97022.44;5041090;23;20109;-76
2022/07/21 18:59:43;;;;;;;4.35;3.90;;;;;;;26.69;44.78;97022.72;4881714;29;20064;-76
2022/07/21 19:02:11;;;;;;;4.38;3.72;;;;;;;26.63;44.52;97013.91;4880636;29;20505;-76
2022/07/21 19:04:38;;;;;;;4.63;4.22;;;;;;;26.61;45.33;97018.75;4881225;29;20049;-76
2022/07/21 19:07:06;;;;;;;4.40;4.05;;;;;;;26.59;45.98;97020.91;4881264;29;20085;-76
2022/07/21 22:05:54;;;;;;;6.38;4.82;;;;;;;22.42;54.38;97091.09;4878349;27;20089;-79
2022/07/21 22:08:36;;;;;;;4.90;4.50;;;;;;;22.39;54.62;97091.59;4883625;29;20034;-79
2022/07/21 22:11:22;;;;;;;6.18;5.45;;;;;;;22.36;54.44;97104.56;4865011;29;20038;-79
2022/07/21 22:14:02;;;;;;;8.27;5.47;;;;;;;22.30;54.75;97098.41;4864843;29;20058;-79
2022/07/21 22:16:49;;;;;;;5.63;5.05;;;;;;;22.25;54.55;97094.84;4865192;29;20061;-78
2022/07/21 22:47:50;;;;;;;5.82;5.22;;;;;;;21.93;55.37;97092.75;5698082;23;20505;-75
2022/07/21 22:50:18;;;;;;;5.85;4.78;;;;;;;21.90;55.18;97087.91;4880384;29;20057;-75
2022/07/21 22:52:45;;;;;;;8.32;5.57;;;;;;;21.84;55.51;97083.56;4881422;29;20088;-75
2022/07/21 22:55:13;;;;;;;5.40;4.90;;;;;;;21.77;55.77;97089.84;4880951;29;20501;-74
2022/07/21 22:57:40;;;;;;;6.65;5.18;;;;;;;21.74;55.91;97082.38;4880977;29;20116;-75
2022/07/21 23:00:09;;;;;;;7.38;5.70;;;;;;;21.67;56.08;97084.38;4880978;29;20577;-75
